Time;durP1;ratioP1;P1;durP2;ratioP2;P2;SDS_P1;SDS_P2;PMS_P1;PMS_P2;Temp;Humidity;BMP_temperature;BMP_pressure;BME280_temperature;BME280_humidity;BME280_pressure;Samples;Min_cycle;Max_cycle;Signal;HPM_P1;HPM_P2
2022/01/30 00:01:30;;;;;;;;;9.00;9.00;;;;;10.15;83.64;102979.53;5035535;28;45414;-66
2022/01/30 00:03:55;;;;;;;;;12.00;10.67;;;;;10.24;83.04;102975.41;5021605;28;45388;-66
2022/01/30 00:06:21;;;;;;;;;7.33;7.00;;;;;10.16;82.64;102968.56;5019885;28;45623;-66
2022/01/30 00:08:48;;;;;;;;;9.67;9.33;;;;;10.16;82.86;102978.53;5022196;28;45484;-65
2022/01/30 00:11:18;;;;;;;;;10.67;8.33;;;;;10.15;83.22;102968.66;5036189;28;45498;-66
2022/01/30 00:13:44;;;;;;;;;11.00;9.67;;;;;10.14;83.07;102975.94;5023235;28;45510;-68
2022/01/30 00:16:10;;;;;;;;;5.33;5.00;;;;;10.16;82.84;102971.28;5019761;28;47266;-66
2022/01/30 00:24:04;;;;;;;;;8.33;8.33;;;;;10.20;82.85;102965.69;5016162;28;45280;-66
2022/01/30 00:26:33;;;;;;;;;6.33;5.00;;;;;10.24;83.03;102965.41;5033393;28;48066;-65
2022/01/30 00:28:59;;;;;;;;;8.00;8.00;;;;;10.26;82.59;102968.03;5021360;28;45581;-65
2022/01/30 00:31:26;;;;;;;;;9.67;6.33;;;;;10.31;82.68;102963.19;5017707;28;45298;-66
2022/01/30 00:33:52;;;;;;;;;11.00;8.00;;;;;10.35;82.45;102964.78;5022133;28;45618;-66
2022/01/30 00:36:18;;;;;;;;;10.00;8.67;;;;;10.11;82.64;102954.38;5017499;28;48027;-65
2022/01/30 00:38:43;;;;;;;;;9.00;9.00;;;;;10.10;83.14;102968.03;5020429;28;45308;-65
2022/01/30 00:41:08;;;;;;;;;5.67;5.00;;;;;10.02;83.69;102952.22;5020301;28;45462;-65
2022/01/30 00:43:34;;;;;;;;;6.00;6.00;;;;;9.99;83.98;102946.97;5019777;28;45565;-64
2022/01/30 00:45:59;;;;;;;;;6.67;6.67;;;;;10.03;83.76;102955.81;5021146;28;46234;-64
2022/01/30 00:48:25;;;;;;;;;9.00;9.00;;;;;10.03;83.90;102945.81;5018163;28;45411;-64
2022/01/30 00:50:50;;;;;;;;;10.00;9.00;;;;;10.10;83.88;102952.63;5021114;28;45389;-64
2022/01/30 00:53:16;;;;;;;;;10.33;7.33;;;;;10.13;83.62;102957.00;5018548;28;45549;-64
2022/01/30 00:55:42;;;;;;;;;8.00;6.00;;;;;10.12;83.17;102958.84;5021348;28;46186;-64
2022/01/30 00:58:07;;;;;;;;;7.67;7.67;;;;;10.10;83.71;102943.59;5015231;28;45411;-65
2022/01/30 01:00:34;;;;;;;;;8.33;6.00;;;;;10.15;83.75;102939.63;5022635;28;45357;-64
2022/01/30 01:03:00;;;;;;;;;7.33;7.00;;;;;10.15;82.75;102938.78;5017659;28;45356;-65
2022/01/30 01:05:26;;;;;;;;;11.67;10.67;;;;;10.04;83.37;102931.28;5021435;28;46111;-66
2022/01/30 01:07:54;;;;;;;;;8.00;8.00;;;;;10.03;83.29;102928.66;5018624;28;45386;-63
2022/01/30 01:10:38;;;;;;;;;11.00;9.00;;;;;9.94;83.50;102930.06;5022649;28;45390;-64
2022/01/30 01:13:22;;;;;;;;;8.00;8.00;;;;;9.96;83.84;102933.56;5019173;28;45502;-66
2022/01/30 01:23:55;;;;;;;;;9.33;6.67;;;;;9.85;83.89;102925.19;5021535;28;45419;-65
2022/01/30 01:26:23;;;;;;;;;11.00;11.00;;;;;9.88;84.13;102922.28;5017692;28;47284;-65
2022/01/30 01:28:49;;;;;;;;;11.67;10.00;;;;;9.92;83.65;102914.84;5015869;28;45424;-65
2022/01/30 01:31:14;;;;;;;;;12.67;9.00;;;;;9.88;83.72;102914.13;5019088;28;45402;-65
2022/01/30 01:36:38;;;;;;;;;10.00;10.00;;;;;9.98;83.84;102920.78;4984121;28;46094;-65
2022/01/30 01:39:04;;;;;;;;;11.00;11.00;;;;;10.05;84.00;102919.44;5037250;28;45389;-65
2022/01/30 01:41:32;;;;;;;;;10.00;8.67;;;;;10.04;83.66;102920.41;5017870;28;45345;-65
2022/01/30 01:43:58;;;;;;;;;10.33;10.33;;;;;10.06;83.53;102926.63;5024251;28;45557;-65
2022/01/30 01:46:29;;;;;;;;;12.00;11.00;;;;;10.08;83.36;102927.41;5020942;28;45403;-65
2022/01/30 01:48:55;;;;;;;;;14.67;11.00;;;;;10.03;83.58;102921.38;5023470;28;45528;-65
2022/01/30 01:51:24;;;;;;;;;12.33;9.00;;;;;9.96;83.30;102928.13;5036901;28;45389;-65
2022/01/30 01:53:53;;;;;;;;;9.33;9.33;;;;;10.03;83.48;102928.66;5019612;28;45370;-65
2022/01/30 01:56:19;;;;;;;;;11.67;9.00;;;;;10.01;83.75;102925.13;5036630;28;48037;-65
2022/01/30 01:58:45;;;;;;;;;11.33;9.67;;;;;9.96;84.14;102922.69;5022205;28;45335;-65
2022/01/30 02:01:10;;;;;;;;;12.67;9.00;;;;;10.06;83.79;102934.78;5022699;28;45313;-65
2022/01/30 02:03:38;;;;;;;;;11.67;11.00;;;;;10.16;83.35;102941.38;5022537;28;45236;-65
2022/01/30 02:06:05;;;;;;;;;16.00;12.00;;;;;10.23;82.77;102932.94;5023331;28;45461;-65
2022/01/30 02:08:35;;;;;;;;;13.67;12.00;;;;;10.20;82.68;102924.94;5023415;28;45395;-65
2022/01/30 02:11:08;;;;;;;;;12.67;11.67;;;;;10.13;82.96;102935.28;5022580;28;45344;-65
2022/01/30 02:24:36;;;;;;;;;11.67;10.67;;;;;10.32;82.90;102918.75;5025267;28;45471;-65
2022/01/30 02:27:02;;;;;;;;;13.33;12.00;;;;;10.31;82.38;102917.00;5018729;28;46249;-65
2022/01/30 02:29:29;;;;;;;;;14.67;11.67;;;;;10.33;82.70;102905.09;5023594;28;45454;-65
2022/01/30 02:31:57;;;;;;;;;15.67;15.33;;;;;10.32;82.40;102908.78;5018755;28;45281;-65
2022/01/30 02:34:27;;;;;;;;;17.33;15.67;;;;;10.29;82.48;102908.97;5025271;28;45568;-65
2022/01/30 02:36:52;;;;;;;;;13.00;13.00;;;;;10.21;82.68;102902.25;5033451;28;48125;-65
2022/01/30 02:39:19;;;;;;;;;19.67;13.67;;;;;10.27;82.55;102918.19;5024614;28;45413;-65
2022/01/30 02:41:45;;;;;;;;;14.67;13.00;;;;;10.34;81.95;102924.97;5018498;28;45399;-65
2022/01/30 02:44:19;;;;;;;;;9.00;9.00;;;;;10.33;81.86;102915.97;5025319;28;46706;-65
2022/01/30 02:46:49;;;;;;;;;14.33;11.00;;;;;10.30;82.66;102907.97;5018144;28;45519;-65
2022/01/30 02:52:02;;;;;;;;;19.67;15.33;;;;;10.31;81.87;102922.44;5018854;28;45318;-65
2022/01/30 02:54:29;;;;;;;;;16.33;13.67;;;;;10.34;81.90;102924.97;5015158;28;45561;-65
2022/01/30 02:56:55;;;;;;;;;17.33;13.67;;;;;10.32;81.67;102913.31;5017346;28;45402;-65
2022/01/30 02:59:21;;;;;;;;;17.00;13.67;;;;;10.32;81.64;102918.75;5021375;28;45343;-65
2022/01/30 03:01:47;;;;;;;;;12.33;12.00;;;;;10.31;81.87;102927.88;5019624;28;45474;-65
2022/01/30 03:04:13;;;;;;;;;13.67;13.00;;;;;10.29;81.65;102919.84;5019519;28;45306;-65
2022/01/30 03:06:38;;;;;;;;;12.00;12.00;;;;;10.29;81.73;102919.84;5021952;28;46421;-65
2022/01/30 03:09:06;;;;;;;;;20.00;16.67;;;;;10.18;81.25;102921.44;5023690;28;45363;-65
2022/01/30 03:11:32;;;;;;;;;20.33;15.00;;;;;10.15;81.66;102928.78;5021243;28;45465;-65
2022/01/30 03:13:58;;;;;;;;;18.33;12.67;;;;;10.23;81.42;102930.22;5015562;28;45545;-65
2022/01/30 03:16:23;;;;;;;;;13.67;13.67;;;;;10.23;81.23;102938.38;5019814;28;46596;-65
2022/01/30 03:18:50;;;;;;;;;17.33;12.33;;;;;10.23;81.41;102935.66;5022390;28;45338;-65
2022/01/30 03:21:15;;;;;;;;;19.00;16.33;;;;;10.23;81.05;102930.22;5020009;28;45286;-65
2022/01/30 03:23:41;;;;;;;;;12.00;12.00;;;;;10.23;81.48;102924.78;5019024;28;45568;-65
2022/01/30 03:26:08;;;;;;;;;13.00;11.00;;;;;10.23;81.22;102938.38;5037087;28;47441;-65
2022/01/30 03:28:34;;;;;;;;;10.00;9.00;;;;;9.96;80.00;102930.84;5020311;28;45434;-65
2022/01/30 03:31:03;;;;;;;;;16.33;12.67;;;;;9.88;81.46;102932.25;5022127;28;45279;-65
2022/01/30 03:33:30;;;;;;;;;14.33;14.00;;;;;9.79;82.30;102933.69;5020105;28;45675;-65
2022/01/30 03:35:56;;;;;;;;;10.00;9.00;;;;;9.85;81.61;102952.34;5021791;28;45449;-65
2022/01/30 03:38:22;;;;;;;;;16.67;12.33;;;;;9.86;79.24;102931.50;5019211;28;45315;-65
2022/01/30 03:40:48;;;;;;;;;10.00;6.00;;;;;9.87;77.20;102939.53;5021844;28;45415;-65
2022/01/30 03:43:14;;;;;;;;;11.00;9.00;;;;;9.99;76.63;102940.66;5019648;28;45504;-65
2022/01/30 03:45:39;;;;;;;;;4.67;4.67;;;;;10.01;74.96;102936.88;5023252;28;46022;-65
2022/01/30 03:48:05;;;;;;;;;7.33;4.00;;;;;10.01;75.13;102934.16;5016714;28;45340;-65
2022/01/30 03:50:31;;;;;;;;;5.33;5.33;;;;;10.04;74.21;102925.84;5038587;28;45358;-65
2022/01/30 03:52:56;;;;;;;;;7.33;4.67;;;;;9.96;71.75;102928.13;5016030;28;45299;-65
2022/01/30 03:55:22;;;;;;;;;10.67;5.67;;;;;9.85;70.99;102919.78;5022276;28;46514;-65
2022/01/30 03:57:48;;;;;;;;;6.00;3.33;;;;;9.75;70.57;102929.41;5019101;28;45295;-65
2022/01/30 04:00:14;;;;;;;;;5.00;3.00;;;;;9.78;70.56;102942.81;5021864;28;45385;-65
2022/01/30 04:02:40;;;;;;;;;7.33;5.00;;;;;9.76;69.51;102933.88;5019317;28;45372;-65
2022/01/30 04:05:06;;;;;;;;;0.00;0.00;;;;;9.77;69.96;102936.50;5021754;28;45453;-65
2022/01/30 04:07:31;;;;;;;;;8.33;3.67;;;;;9.76;69.62;102942.03;5020834;28;45271;-65
2022/01/30 04:09:57;;;;;;;;;3.67;3.67;;;;;9.78;68.68;102940.09;5022812;28;45256;-66
2022/01/30 04:12:23;;;;;;;;;3.00;3.00;;;;;9.80;68.87;102949.00;5014464;28;45382;-65
2022/01/30 04:14:48;;;;;;;;;5.00;3.67;;;;;9.79;69.44;102952.69;5020075;28;47520;-65
2022/01/30 04:17:15;;;;;;;;;12.33;3.67;;;;;9.70;68.59;102940.53;5016449;28;45507;-66
2022/01/30 04:19:41;;;;;;;;;10.33;8.00;;;;;9.59;68.00;102950.25;5023520;28;45323;-65
2022/01/30 04:22:07;;;;;;;;;8.00;6.33;;;;;9.65;68.31;102949.91;5017854;28;45450;-66
2022/01/30 04:24:32;;;;;;;;;4.00;3.67;;;;;9.67;68.09;102943.44;5023033;28;45541;-65
2022/01/30 04:26:58;;;;;;;;;4.00;4.00;;;;;9.77;68.66;102954.63;5032350;28;46033;-65
2022/01/30 04:29:24;;;;;;;;;8.33;3.33;;;;;9.80;67.79;102951.72;5018808;28;45329;-65
2022/01/30 04:31:50;;;;;;;;;3.00;3.00;;;;;9.82;68.42;102955.22;5027335;28;45209;-65
2022/01/30 04:34:16;;;;;;;;;4.67;4.00;;;;;9.76;66.75;102952.88;5023151;28;46457;-65
2022/01/30 04:36:56;;;;;;;;;10.33;7.00;;;;;9.74;67.61;102952.09;5015298;28;45394;-66
2022/01/30 04:52:07;;;;;;;;;5.00;5.00;;;;;9.76;68.10;102963.75;5016236;28;45675;-66
2022/01/30 04:53:17;;;;;;;;;4.00;4.00;;;;;9.65;66.90;102968.91;5015648;28;45471;-65
2022/01/30 05:02:00;;;;;;;;;7.00;6.00;;;;;9.55;66.93;102971.28;5029384;28;45263;-65
2022/01/30 05:04:22;;;;;;;;;4.00;3.00;;;;;9.64;67.75;102972.59;5022291;28;45542;-65
2022/01/30 05:07:25;;;;;;;;;5.00;3.67;;;;;9.64;66.22;102976.16;5019760;28;46206;-65
2022/01/30 05:09:37;;;;;;;;;4.67;3.67;;;;;9.64;67.85;102964.47;5021371;28;45427;-65
2022/01/30 05:12:03;;;;;;;;;6.00;4.67;;;;;9.63;67.86;102979.88;5017652;28;45370;-65
2022/01/30 05:14:34;;;;;;;;;5.33;4.00;;;;;9.53;65.71;102972.31;5017582;28;45458;-65
2022/01/30 05:16:59;;;;;;;;;9.00;7.00;;;;;9.40;65.87;102979.41;5019235;28;46470;-66
2022/01/30 05:19:26;;;;;;;;;9.00;5.33;;;;;9.32;65.98;102969.00;5025353;28;45460;-66
2022/01/30 05:21:52;;;;;;;;;5.00;3.67;;;;;9.29;66.68;102967.31;5022990;28;45721;-66
2022/01/30 05:24:18;;;;;;;;;4.00;4.00;;;;;9.38;67.08;102977.66;5024716;28;45405;-66
2022/01/30 05:26:45;;;;;;;;;7.00;3.33;;;;;9.41;66.49;102979.34;5020873;28;47922;-66
2022/01/30 05:29:10;;;;;;;;;6.33;4.00;;;;;9.46;67.47;102985.38;5024267;28;45988;-67
2022/01/30 05:31:36;;;;;;;;;5.33;3.00;;;;;9.50;66.90;102989.66;5022281;28;45493;-66
2022/01/30 05:34:01;;;;;;;;;4.00;3.67;;;;;9.55;67.46;102994.84;5024854;28;45551;-65
2022/01/30 05:36:29;;;;;;;;;9.67;5.00;;;;;9.58;66.70;103000.06;5022128;28;45430;-65
2022/01/30 05:38:54;;;;;;;;;6.33;4.00;;;;;9.59;68.40;102988.25;5023978;28;45418;-65
2022/01/30 05:41:21;;;;;;;;;4.00;3.67;;;;;9.59;68.20;102988.25;5022286;28;45519;-66
2022/01/30 05:43:50;;;;;;;;;3.67;3.00;;;;;9.58;67.80;103000.94;5024984;28;45365;-65
2022/01/30 05:46:29;;;;;;;;;9.00;4.00;;;;;9.56;66.94;102994.75;5022869;28;45497;-65
2022/01/30 05:48:54;;;;;;;;;8.00;4.00;;;;;9.56;67.01;102996.59;5024781;28;45527;-65
2022/01/30 05:51:20;;;;;;;;;9.67;3.00;;;;;9.48;66.72;102997.03;5023185;28;45247;-65
2022/01/30 05:53:46;;;;;;;;;10.00;5.33;;;;;9.51;66.29;103001.38;5023889;28;45421;-65
2022/01/30 05:56:12;;;;;;;;;3.00;3.00;;;;;9.50;67.25;103000.50;5022032;28;46057;-65
2022/01/30 05:58:38;;;;;;;;;4.00;4.00;;;;;9.49;65.83;102992.47;5021325;28;45483;-65
2022/01/30 06:01:03;;;;;;;;;7.00;4.67;;;;;9.46;66.41;102998.06;5022892;28;45465;-65
2022/01/30 06:03:29;;;;;;;;;6.67;4.00;;;;;9.36;65.89;102993.13;5025291;28;45439;-65
2022/01/30 06:05:55;;;;;;;;;5.33;4.00;;;;;9.41;67.01;103001.03;5022119;28;45615;-64
2022/01/30 06:08:59;;;;;;;;;3.67;2.33;;;;;9.38;65.48;103001.19;5020841;28;45500;-65
2022/01/30 06:11:13;;;;;;;;;6.67;4.67;;;;;9.44;66.31;103009.00;5021935;28;45764;-65
2022/01/30 06:13:39;;;;;;;;;7.67;7.67;;;;;9.40;67.19;103004.72;5015234;28;45446;-64
2022/01/30 06:16:05;;;;;;;;;8.67;5.00;;;;;9.41;66.86;103016.44;5020416;28;45538;-65
2022/01/30 06:18:30;;;;;;;;;5.67;5.33;;;;;9.30;66.18;103012.47;5018443;28;45433;-65
2022/01/30 06:20:56;;;;;;;;;2.67;2.67;;;;;9.29;66.35;103024.28;5021742;28;45382;-65
2022/01/30 06:23:25;;;;;;;;;4.33;4.33;;;;;9.20;65.37;103024.81;5019605;28;45431;-64
2022/01/30 06:25:51;;;;;;;;;2.67;2.00;;;;;9.19;65.77;103024.91;5022211;28;46356;-65
2022/01/30 06:28:17;;;;;;;;;2.33;2.33;;;;;9.19;65.66;103028.47;5024525;28;45440;-65
2022/01/30 06:30:42;;;;;;;;;3.67;3.00;;;;;9.19;64.70;103028.47;5024256;28;45339;-65
2022/01/30 06:33:08;;;;;;;;;9.67;4.33;;;;;9.19;64.59;103027.59;5019893;28;45538;-65
2022/01/30 06:35:33;;;;;;;;;5.67;3.00;;;;;9.15;64.71;103026.88;5025049;28;46563;-65
2022/01/30 06:37:58;;;;;;;;;7.33;3.67;;;;;9.11;65.73;103019.88;5033659;28;45335;-65
2022/01/30 06:40:24;;;;;;;;;4.33;3.67;;;;;9.09;66.52;103024.50;5024974;28;45537;-65
2022/01/30 06:42:49;;;;;;;;;8.33;3.00;;;;;9.08;66.72;103013.75;5018978;28;45391;-64
2022/01/30 06:45:18;;;;;;;;;8.33;4.00;;;;;9.07;66.66;103020.13;5024968;28;46369;-65
2022/01/30 06:47:44;;;;;;;;;9.00;3.50;;;;;9.01;66.24;103023.16;5018381;28;45310;-65
2022/01/30 06:50:11;;;;;;;;;3.00;3.00;;;;;8.96;66.61;103026.13;5024772;28;45439;-65
2022/01/30 06:52:38;;;;;;;;;3.67;3.67;;;;;8.91;66.24;103036.38;5019781;28;45506;-64
2022/01/30 06:55:04;;;;;;;;;4.00;4.00;;;;;8.86;66.83;103035.72;5020606;28;45376;-65
2022/01/30 06:57:29;;;;;;;;;2.67;2.67;;;;;8.75;66.51;103033.59;5020130;28;45339;-64
2022/01/30 06:59:55;;;;;;;;;8.00;4.00;;;;;8.68;67.36;103024.03;5022691;28;45469;-64
2022/01/30 07:02:20;;;;;;;;;5.33;4.67;;;;;8.56;67.04;103027.34;5023422;28;45399;-65
2022/01/30 07:04:46;;;;;;;;;4.00;4.00;;;;;8.51;67.10;103030.31;5023415;28;46435;-64
2022/01/30 07:07:11;;;;;;;;;7.00;4.00;;;;;8.48;67.81;103035.00;5018490;28;45287;-65
2022/01/30 07:09:36;;;;;;;;;8.33;7.67;;;;;8.42;67.55;103038.91;5018360;28;45328;-65
2022/01/30 07:12:02;;;;;;;;;8.67;3.67;;;;;8.29;66.88;103042.28;5018908;28;45564;-65
2022/01/30 07:14:29;;;;;;;;;8.00;7.00;;;;;8.31;67.45;103038.59;5019422;28;46487;-65
2022/01/30 07:16:54;;;;;;;;;12.00;8.00;;;;;8.26;67.94;103032.47;5018097;28;45284;-65
2022/01/30 07:19:19;;;;;;;;;9.67;9.00;;;;;8.22;67.83;103041.72;5054561;28;45513;-64
2022/01/30 07:21:45;;;;;;;;;7.33;3.00;;;;;8.20;67.95;103046.34;5019583;28;45447;-65
2022/01/30 07:24:10;;;;;;;;;6.00;4.00;;;;;8.15;68.37;103054.72;5024049;28;45488;-65
2022/01/30 07:26:35;;;;;;;;;6.67;5.33;;;;;8.06;68.48;103046.16;5021013;28;45378;-65
2022/01/30 07:29:03;;;;;;;;;3.00;3.00;;;;;8.12;68.79;103059.38;5018375;28;45536;-64
2022/01/30 07:31:30;;;;;;;;;2.33;2.00;;;;;8.09;68.70;103067.69;5018945;28;45488;-64
2022/01/30 07:33:56;;;;;;;;;7.00;5.00;;;;;8.08;69.01;103063.22;5022141;28;45470;-64
2022/01/30 07:36:21;;;;;;;;;12.33;5.33;;;;;8.06;68.93;103081.34;5020685;28;45410;-64
2022/01/30 07:38:46;;;;;;;;;8.33;6.67;;;;;8.02;69.26;103072.53;5020570;28;45214;-64
2022/01/30 07:41:12;;;;;;;;;3.33;2.67;;;;;7.96;69.31;103086.38;5022404;28;45313;-65
2022/01/30 07:43:37;;;;;;;;;8.33;5.33;;;;;7.91;69.50;103077.56;5019681;28;45542;-65
2022/01/30 07:46:04;;;;;;;;;6.33;5.67;;;;;7.93;69.48;103085.63;5021968;28;45336;-64
2022/01/30 07:48:29;;;;;;;;;7.00;6.00;;;;;7.97;69.63;103089.91;5022835;28;45492;-64
2022/01/30 07:50:55;;;;;;;;;7.67;6.00;;;;;7.96;69.31;103082.78;5021007;28;45248;-64
2022/01/30 07:53:20;;;;;;;;;7.00;4.00;;;;;7.97;68.99;103087.22;5015305;28;46987;-64
2022/01/30 07:55:46;;;;;;;;;5.67;4.67;;;;;7.95;69.23;103083.72;5021471;28;45835;-65
2022/01/30 07:58:12;;;;;;;;;10.67;3.67;;;;;7.97;69.07;103098.03;5017976;28;45384;-64
2022/01/30 08:00:38;;;;;;;;;8.33;6.67;;;;;7.89;68.74;103093.00;5039204;28;45334;-64
2022/01/30 08:03:04;;;;;;;;;10.67;6.33;;;;;7.96;68.36;103108.03;5034767;28;50580;-65
2022/01/30 08:05:29;;;;;;;;;9.33;6.00;;;;;7.98;68.40;103100.69;5039002;28;45211;-65
2022/01/30 08:07:55;;;;;;;;;8.00;3.00;;;;;7.98;68.42;103102.50;5028174;28;45571;-64
2022/01/30 08:10:20;;;;;;;;;5.67;5.33;;;;;8.07;69.11;103105.66;5039381;28;45525;-64
2022/01/30 08:12:46;;;;;;;;;6.00;6.00;;;;;8.14;68.07;103104.41;5013961;28;45561;-65
2022/01/30 08:15:11;;;;;;;;;3.67;3.67;;;;;8.14;68.21;103100.81;5023482;28;45352;-65
2022/01/30 08:17:37;;;;;;;;;8.33;7.00;;;;;8.12;67.73;103100.88;5017284;28;45310;-64
2022/01/30 08:20:04;;;;;;;;;7.67;4.00;;;;;8.10;68.11;103108.22;5024076;28;45335;-67
2022/01/30 08:22:31;;;;;;;;;8.33;4.00;;;;;8.16;68.83;103098.91;5014360;28;45621;-64
2022/01/30 08:24:56;;;;;;;;;7.67;5.33;;;;;8.30;68.99;103106.34;5022829;28;45319;-64
2022/01/30 08:27:22;;;;;;;;;7.67;7.00;;;;;8.38;68.24;103099.63;5031942;28;45434;-64
2022/01/30 08:29:47;;;;;;;;;7.67;6.00;;;;;8.45;67.82;103098.38;5020272;28;45473;-65
2022/01/30 08:32:13;;;;;;;;;9.00;4.33;;;;;8.50;67.93;103098.13;5016824;28;45602;-64
2022/01/30 08:34:39;;;;;;;;;6.67;4.67;;;;;8.53;67.14;103108.81;5023206;28;45456;-65
2022/01/30 08:37:05;;;;;;;;;7.33;7.00;;;;;8.55;66.99;103096.94;5016719;28;45313;-65
2022/01/30 08:39:30;;;;;;;;;6.00;4.00;;;;;8.63;67.25;103095.66;5022820;28;45338;-65
2022/01/30 08:41:56;;;;;;;;;8.67;7.33;;;;;8.70;66.74;103095.25;5016405;28;45443;-64
2022/01/30 08:44:21;;;;;;;;;4.00;4.00;;;;;8.73;67.80;103095.13;5035160;28;45410;-65
2022/01/30 08:46:46;;;;;;;;;4.33;4.33;;;;;8.77;65.92;103098.53;5015833;28;45522;-64
2022/01/30 08:49:14;;;;;;;;;9.00;8.00;;;;;8.85;66.08;103101.72;5019799;28;44994;-64
2022/01/30 08:51:39;;;;;;;;;6.00;3.67;;;;;8.85;66.12;103104.44;5017055;28;45629;-64
2022/01/30 08:54:04;;;;;;;;;3.33;3.00;;;;;8.92;65.93;103111.28;5019408;28;45407;-65
2022/01/30 08:56:30;;;;;;;;;5.00;5.00;;;;;9.02;65.06;103104.44;5018898;28;45427;-65
2022/01/30 08:58:55;;;;;;;;;11.00;8.00;;;;;9.01;65.63;103101.81;5019653;28;45468;-65
2022/01/30 09:01:20;;;;;;;;;7.33;6.33;;;;;9.11;65.18;103112.09;5019420;28;45369;-65
2022/01/30 09:03:46;;;;;;;;;46.00;33.00;;;;;9.12;64.65;103100.28;5020951;28;45347;-65
2022/01/30 09:06:11;;;;;;;;;12.67;9.67;;;;;9.16;63.41;103110.00;5020022;28;45498;-64
2022/01/30 09:08:37;;;;;;;;;8.00;7.00;;;;;9.17;64.73;103111.75;5018256;28;45383;-65
2022/01/30 09:11:02;;;;;;;;;9.33;5.67;;;;;9.15;63.14;103101.94;5020510;28;45323;-65
2022/01/30 09:13:27;;;;;;;;;10.67;7.00;;;;;9.02;62.89;103106.28;5014686;28;45425;-65
2022/01/30 09:15:59;;;;;;;;;4.67;3.67;;;;;8.93;63.07;103108.50;5020973;28;45273;-65
2022/01/30 09:18:26;;;;;;;;;6.33;5.00;;;;;9.03;64.07;103108.03;5016145;28;45458;-64
2022/01/30 09:20:52;;;;;;;;;7.00;5.33;;;;;9.13;63.40;103110.16;5021221;28;45692;-65
2022/01/30 09:23:17;;;;;;;;;8.33;5.33;;;;;9.15;62.00;103113.66;5032889;28;45393;-65
2022/01/30 09:25:44;;;;;;;;;11.67;8.00;;;;;9.19;62.52;103115.28;5020241;28;45465;-65
2022/01/30 09:28:10;;;;;;;;;8.67;5.33;;;;;9.06;62.99;103110.59;5015354;28;45553;-64
2022/01/30 09:30:35;;;;;;;;;9.00;6.33;;;;;8.88;62.59;103117.84;5017839;28;48268;-65
2022/01/30 09:33:00;;;;;;;;;4.00;4.00;;;;;8.76;63.84;103121.19;5015936;28;45275;-65
2022/01/30 09:35:26;;;;;;;;;7.67;5.33;;;;;9.00;63.38;103119.91;5022588;28;45246;-65
2022/01/30 09:37:51;;;;;;;;;9.33;7.67;;;;;9.09;61.83;103118.53;5016288;28;45500;-65
2022/01/30 09:40:18;;;;;;;;;9.00;4.00;;;;;9.18;63.52;103120.78;5022098;28;45385;-65
2022/01/30 09:42:46;;;;;;;;;6.67;4.00;;;;;9.24;63.24;103124.03;5011342;28;45340;-65
2022/01/30 09:45:13;;;;;;;;;12.67;8.00;;;;;9.16;61.70;103114.56;5021598;28;45402;-66
2022/01/30 09:47:39;;;;;;;;;11.33;8.00;;;;;9.09;61.95;103124.84;5014822;28;45595;-65
2022/01/30 09:50:05;;;;;;;;;7.67;4.67;;;;;9.05;62.15;103123.28;5022008;28;45343;-65
2022/01/30 09:52:31;;;;;;;;;11.67;8.00;;;;;9.09;62.10;103127.56;5015910;28;45324;-65
2022/01/30 09:54:56;;;;;;;;;10.33;7.00;;;;;9.09;61.90;103124.84;5017913;28;45526;-65
2022/01/30 09:57:21;;;;;;;;;9.33;4.00;;;;;9.13;62.06;103128.28;5016986;28;45607;-66
2022/01/30 09:59:48;;;;;;;;;4.33;4.33;;;;;9.16;62.42;103125.41;5019670;28;46274;-67
2022/01/30 10:02:14;;;;;;;;;9.00;7.33;;;;;9.17;62.50;103133.47;5019854;28;45375;-65
2022/01/30 10:04:39;;;;;;;;;7.33;5.00;;;;;9.07;60.91;103128.59;5024812;28;45596;-66
2022/01/30 10:07:13;;;;;;;;;8.00;4.00;;;;;9.02;61.68;103125.25;5036321;28;45566;-65
2022/01/30 10:09:44;;;;;;;;;6.33;4.67;;;;;8.86;61.41;103134.19;5020702;28;45481;-65
2022/01/30 10:12:16;;;;;;;;;6.33;4.33;;;;;8.73;61.78;103124.06;5019607;28;45177;-65
2022/01/30 10:14:58;;;;;;;;;9.00;4.67;;;;;8.74;62.10;103126.69;5020629;28;45348;-65
2022/01/30 10:17:45;;;;;;;;;7.00;4.00;;;;;8.89;62.44;103125.03;5019418;28;45536;-65
2022/01/30 10:20:16;;;;;;;;;13.00;4.67;;;;;8.91;62.10;103128.53;5014261;28;45441;-65
2022/01/30 10:22:53;;;;;;;;;7.67;3.67;;;;;8.98;62.00;103127.25;5016489;28;45236;-65
2022/01/30 10:25:25;;;;;;;;;7.67;4.33;;;;;9.03;60.89;103122.47;5025220;28;45319;-65
2022/01/30 10:28:19;;;;;;;;;4.33;3.00;;;;;9.05;61.68;103123.28;5018752;28;45225;-66
2022/01/30 10:31:05;;;;;;;;;6.00;4.00;;;;;9.17;62.27;103127.16;5024283;28;46023;-65
2022/01/30 10:33:45;;;;;;;;;3.33;3.00;;;;;9.20;62.17;103111.63;5020118;28;45334;-65
2022/01/30 10:36:12;;;;;;;;;10.33;4.33;;;;;9.22;61.40;103125.94;5008928;28;45339;-65
2022/01/30 10:38:47;;;;;;;;;9.67;7.00;;;;;9.01;60.30;103121.66;5019193;28;45448;-65
2022/01/30 10:41:19;;;;;;;;;11.33;7.67;;;;;8.98;61.08;103116.41;5021721;28;47401;-65
2022/01/30 10:43:55;;;;;;;;;11.00;5.33;;;;;8.85;61.25;103110.72;5016734;28;45462;-65
2022/01/30 10:46:23;;;;;;;;;9.33;6.33;;;;;8.94;60.65;103117.50;5021932;28;45373;-65
2022/01/30 10:49:09;;;;;;;;;10.67;7.67;;;;;8.92;60.78;103112.16;5019720;28;45493;-65
2022/01/30 10:51:34;;;;;;;;;5.67;5.67;;;;;8.89;60.96;103103.34;5019002;28;48153;-65
2022/01/30 10:54:11;;;;;;;;;4.33;4.33;;;;;8.77;61.46;103112.97;5021939;28;45483;-65
2022/01/30 10:56:37;;;;;;;;;11.00;6.67;;;;;8.90;60.51;103118.66;5021596;28;45191;-65
2022/01/30 10:59:09;;;;;;;;;7.67;7.33;;;;;8.80;60.35;103117.34;5024418;28;45322;-65
2022/01/30 11:01:39;;;;;;;;;4.67;4.33;;;;;8.69;60.77;103115.22;5022394;28;46210;-65
2022/01/30 11:04:05;;;;;;;;;6.67;4.00;;;;;8.73;60.48;103110.50;5038490;28;45826;-65
2022/01/30 11:06:36;;;;;;;;;6.67;6.67;;;;;8.97;61.39;103115.53;5022028;28;45293;-65
2022/01/30 11:09:07;;;;;;;;;8.00;7.00;;;;;9.14;61.01;103117.34;5016068;28;45241;-65
2022/01/30 11:12:00;;;;;;;;;8.33;4.00;;;;;9.27;61.08;103110.31;5020717;28;48117;-65
2022/01/30 11:14:34;;;;;;;;;5.33;5.33;;;;;9.28;59.99;103106.63;5016704;28;45311;-65
2022/01/30 11:17:03;;;;;;;;;5.67;5.33;;;;;9.32;60.39;103102.81;5020907;28;46020;-65
2022/01/30 11:19:32;;;;;;;;;5.67;5.67;;;;;9.36;59.69;103092.66;5024326;28;45466;-65
2022/01/30 11:22:05;;;;;;;;;12.33;8.67;;;;;9.41;59.77;103093.28;5019113;28;46173;-65
2022/01/30 11:24:34;;;;;;;;;8.00;8.00;;;;;9.48;59.83;103094.72;5019233;28;45464;-65
2022/01/30 11:27:00;;;;;;;;;10.00;9.00;;;;;9.53;60.41;103094.44;5017440;28;45513;-65
2022/01/30 11:29:27;;;;;;;;;7.00;5.00;;;;;9.69;58.86;103087.22;5024338;28;45518;-65
2022/01/30 11:31:53;;;;;;;;;8.00;5.00;;;;;9.82;58.98;103082.84;5017660;28;46337;-65
2022/01/30 11:34:18;;;;;;;;;9.67;7.00;;;;;10.06;59.17;103081.44;5023656;28;45474;-65
2022/01/30 11:36:48;;;;;;;;;8.67;7.00;;;;;10.24;58.82;103081.34;5016674;28;45496;-65
2022/01/30 11:39:19;;;;;;;;;10.00;8.67;;;;;10.34;58.12;103078.03;5024057;28;45454;-65
2022/01/30 11:42:20;;;;;;;;;11.33;5.00;;;;;10.16;57.28;103074.50;5017706;28;46729;-65
2022/01/30 11:44:48;;;;;;;;;9.67;8.00;;;;;9.98;57.20;103072.84;5019794;28;45402;-66
2022/01/30 11:47:13;;;;;;;;;8.67;7.67;;;;;10.20;57.86;103071.66;5017300;28;45374;-65
2022/01/30 11:49:41;;;;;;;;;8.00;6.33;;;;;10.41;58.03;103065.81;5014450;28;45405;-65
2022/01/30 11:52:11;;;;;;;;;11.67;8.00;;;;;10.22;55.71;103058.88;5016364;28;45517;-65
2022/01/30 11:54:48;;;;;;;;;8.00;5.00;;;;;10.30;56.17;103060.13;5020351;28;45529;-65
2022/01/30 11:57:19;;;;;;;;;8.00;4.00;;;;;10.59;54.98;103054.84;5035159;28;45355;-65
2022/01/30 11:59:46;;;;;;;;;11.67;8.00;;;;;10.73;54.78;103054.88;5022444;28;45415;-65
2022/01/30 12:02:30;;;;;;;;;10.33;6.33;;;;;10.62;54.51;103050.06;5021296;28;45828;-65
2022/01/30 12:05:11;;;;;;;;;5.67;4.67;;;;;10.49;56.09;103038.19;5018023;28;45414;-65
2022/01/30 12:07:37;;;;;;;;;9.00;7.33;;;;;10.42;54.83;103040.41;5041028;28;45363;-65
2022/01/30 12:10:21;;;;;;;;;8.33;7.00;;;;;10.49;54.79;103040.91;5021453;28;45410;-65
2022/01/30 12:12:50;;;;;;;;;9.33;7.33;;;;;10.63;55.74;103034.63;5013723;28;46133;-65
2022/01/30 12:15:35;;;;;;;;;9.00;9.00;;;;;10.69;54.53;103031.53;5023349;28;45335;-65
2022/01/30 12:18:01;;;;;;;;;9.33;7.67;;;;;10.65;55.26;103028.16;5016273;28;45406;-65